Time;durP1;ratioP1;P1;durP2;ratioP2;P2;SDS_P1;SDS_P2;PMS_P1;PMS_P2;Temp;Humidity;BMP_temperature;BMP_pressure;BME280_temperature;BME280_humidity;BME280_pressure;Samples;Min_cycle;Max_cycle;Signal;HPM_P1;HPM_P2
2022/06/10 00:01:39;;;;;;;2.83;2.50;;;12.50;99.90;;;;;;5030914;28;20630;-76
2022/06/10 00:04:04;;;;;;;3.50;3.00;;;12.20;99.90;;;;;;4998015;28;20185;-76
2022/06/10 00:06:30;;;;;;;3.53;3.20;;;12.10;99.90;;;;;;5030792;28;20181;-76
2022/06/10 00:08:56;;;;;;;3.43;2.83;;;12.00;99.90;;;;;;4997941;28;20198;-76
2022/06/10 00:11:22;;;;;;;5.33;3.10;;;11.90;99.90;;;;;;5030591;28;20202;-76
2022/06/10 00:13:47;;;;;;;3.87;2.73;;;12.10;99.90;;;;;;4997780;28;20265;-76
2022/06/10 00:16:16;;;;;;;4.10;3.30;;;12.00;99.90;;;;;;5014150;28;20583;-76
2022/06/10 00:18:42;;;;;;;4.47;3.40;;;12.00;99.90;;;;;;5014099;28;20220;-76
2022/06/10 00:21:10;;;;;;;4.77;3.10;;;11.90;99.90;;;;;;4997890;28;20178;-77
2022/06/10 00:23:35;;;;;;;3.30;2.80;;;11.90;99.90;;;;;;5014312;28;20178;-76
2022/06/10 00:26:01;;;;;;;2.10;1.90;;;11.90;99.90;;;;;;5015276;28;20269;-76
2022/06/10 00:28:27;;;;;;;64.57;6.07;;;11.90;99.90;;;;;;5017920;28;20205;-76
2022/06/10 00:30:53;;;;;;;4.30;3.27;;;11.70;99.90;;;;;;5001530;28;20212;-76
2022/06/10 00:33:20;;;;;;;4.13;3.30;;;11.70;99.90;;;;;;5001734;28;20716;-77
2022/06/10 00:35:45;;;;;;;3.57;2.73;;;11.70;99.90;;;;;;5018108;28;20174;-76
2022/06/10 00:38:11;;;;;;;3.77;2.70;;;11.70;99.90;;;;;;5034302;28;20556;-76
2022/06/10 00:40:41;;;;;;;82.10;77.17;;;11.60;99.90;;;;;;5017691;28;20551;-76
2022/06/10 00:43:11;;;;;;;2.60;2.07;;;11.70;99.90;;;;;;5017813;28;20312;-76
2022/06/10 00:46:04;;;;;;;3.30;2.60;;;11.70;99.90;;;;;;5034225;28;20206;-76
2022/06/10 00:48:36;;;;;;;2.33;2.00;;;11.60;99.90;;;;;;5033871;28;20234;-76
2022/06/10 00:51:31;;;;;;;2.43;1.90;;;11.60;99.90;;;;;;5017621;28;20272;-76
2022/06/10 00:54:15;;;;;;;3.20;2.00;;;11.60;99.90;;;;;;5035297;28;20253;-76
2022/06/10 00:56:45;;;;;;;2.43;1.70;;;11.80;99.90;;;;;;5033946;28;20179;-76
2022/06/10 00:59:20;;;;;;;2.03;1.53;;;11.80;99.90;;;;;;5035072;28;20721;-76
2022/06/10 01:01:46;;;;;;;2.00;1.40;;;11.80;99.90;;;;;;5018037;28;20181;-76
2022/06/10 01:04:12;;;;;;;2.30;1.60;;;11.90;99.90;;;;;;5017413;28;20229;-76
2022/06/10 01:06:38;;;;;;;1.73;1.30;;;12.00;99.90;;;;;;5017319;28;20181;-76
2022/06/10 01:09:04;;;;;;;2.40;1.80;;;12.00;99.90;;;;;;5033687;28;20196;-76
2022/06/10 01:11:54;;;;;;;1.87;1.50;;;12.00;99.90;;;;;;5017110;28;20206;-76
2022/06/10 01:14:26;;;;;;;2.07;1.60;;;11.90;99.90;;;;;;5033619;28;20171;-75
2022/06/10 01:17:25;;;;;;;3.03;2.70;;;11.90;99.90;;;;;;5033400;28;20312;-76
2022/06/10 01:20:23;;;;;;;2.07;1.87;;;11.80;99.90;;;;;;5090640;23;20282;-74
2022/06/10 01:22:49;;;;;;;4.07;1.90;;;11.80;99.90;;;;;;5054739;28;20170;-74
2022/06/10 01:25:29;;;;;;;2.40;1.63;;;11.80;99.90;;;;;;5054835;28;20170;-74
2022/06/10 01:28:03;;;;;;;2.97;2.17;;;11.60;99.90;;;;;;5054696;28;20206;-74
2022/06/10 01:30:50;;;;;;;2.10;1.90;;;11.40;99.90;;;;;;5053309;28;20217;-74
2022/06/10 01:33:31;;;;;;;1.83;1.60;;;11.20;99.90;;;;;;5054365;28;20253;-74
2022/06/10 01:36:02;;;;;;;3.27;1.50;;;11.40;99.90;;;;;;5054743;28;20170;-74
2022/06/10 01:38:49;;;;;;;2.47;2.27;;;11.40;99.90;;;;;;5052486;28;20267;-74
2022/06/10 01:41:38;;;;;;;4.47;3.07;;;11.40;99.90;;;;;;5053208;28;20177;-74
2022/06/10 01:44:28;;;;;;;3.00;2.70;;;11.50;99.90;;;;;;5054236;28;20688;-74
2022/06/10 01:47:07;;;;;;;3.47;2.90;;;11.60;99.90;;;;;;5053047;28;20177;-74
2022/06/10 01:49:54;;;;;;;2.50;2.23;;;11.40;99.90;;;;;;5054053;28;20222;-74
2022/06/10 01:52:50;;;;;;;2.30;2.10;;;11.40;99.90;;;;;;5036379;28;20184;-74
2022/06/10 01:55:25;;;;;;;2.60;2.10;;;11.30;99.90;;;;;;5053121;28;20548;-74
2022/06/10 01:58:09;;;;;;;3.37;2.70;;;11.30;99.90;;;;;;5053290;28;20539;-73
2022/06/10 02:00:37;;;;;;;3.20;2.90;;;11.30;99.90;;;;;;5036486;28;20178;-74
2022/06/10 02:03:21;;;;;;;3.03;2.60;;;11.00;99.90;;;;;;5052489;28;20182;-74
2022/06/10 02:05:52;;;;;;;3.23;2.60;;;11.00;99.90;;;;;;5052751;28;20173;-74
2022/06/10 02:08:32;;;;;;;2.60;2.40;;;10.90;99.90;;;;;;5035981;28;20201;-74
2022/06/10 02:11:12;;;;;;;2.83;2.40;;;10.80;99.90;;;;;;5036145;28;20257;-74
2022/06/10 02:14:11;;;;;;;3.47;2.20;;;10.80;99.90;;;;;;5052262;28;20548;-74
2022/06/10 02:16:45;;;;;;;2.40;2.20;;;11.00;99.90;;;;;;5053768;28;20225;-74
2022/06/10 02:19:14;;;;;;;3.50;2.47;;;11.10;99.90;;;;;;5035833;28;20209;-74
2022/06/10 02:21:47;;;;;;;3.60;2.73;;;11.10;99.90;;;;;;5052444;28;20178;-74
2022/06/10 02:24:28;;;;;;;4.17;2.40;;;11.10;99.90;;;;;;5035803;28;20178;-75
2022/06/10 02:27:01;;;;;;;4.07;2.60;;;11.00;99.90;;;;;;5052462;28;20255;-74
2022/06/10 02:29:33;;;;;;;2.90;2.60;;;10.90;99.90;;;;;;5053351;28;20690;-74
2022/06/10 02:32:00;;;;;;;2.77;2.50;;;10.80;99.90;;;;;;5051983;28;20723;-73
2022/06/10 02:34:29;;;;;;;2.77;2.47;;;10.70;99.90;;;;;;5052502;28;20201;-74
2022/06/10 02:37:00;;;;;;;3.40;2.33;;;10.70;99.90;;;;;;5052387;28;20557;-74
2022/06/10 02:39:39;;;;;;;2.37;2.00;;;10.70;99.90;;;;;;5053354;28;20265;-73
2022/06/10 02:42:25;;;;;;;2.77;2.33;;;10.70;99.90;;;;;;5051956;28;20184;-74
2022/06/10 02:44:56;;;;;;;2.83;2.33;;;10.70;99.90;;;;;;5053392;28;20195;-74
2022/06/10 02:47:45;;;;;;;2.90;2.60;;;10.80;99.90;;;;;;5053477;28;20202;-74
2022/06/10 02:50:12;;;;;;;1.63;1.40;;;10.90;99.90;;;;;;5045794;28;20300;-73
2022/06/10 02:52:40;;;;;;;3.93;3.00;;;10.80;99.90;;;;;;5035081;28;20180;-74
2022/06/10 02:55:11;;;;;;;3.20;2.90;;;10.70;99.90;;;;;;5053120;28;20166;-74
2022/06/10 03:01:11;;;;;;;2.70;2.50;;;10.60;99.90;;;;;;5051548;28;20228;-74
2022/06/10 03:03:43;;;;;;;2.90;2.43;;;10.80;99.90;;;;;;5052455;28;20184;-74
2022/06/10 03:06:47;;;;;;;3.10;2.60;;;10.90;99.90;;;;;;5051446;28;20183;-73
2022/06/10 03:09:59;;;;;;;3.17;2.50;;;10.80;99.90;;;;;;5051706;28;20203;-73
2022/06/10 03:12:34;;;;;;;5.10;2.27;;;10.90;99.90;;;;;;5028924;28;20197;-74
2022/06/10 03:15:27;;;;;;;3.23;2.03;;;11.00;99.90;;;;;;5051394;28;20709;-74
2022/06/10 03:18:04;;;;;;;2.60;2.37;;;11.00;99.90;;;;;;5043860;28;20277;-74
2022/06/10 03:21:10;;;;;;;2.67;2.47;;;11.10;99.90;;;;;;5051437;28;20704;-74
2022/06/10 03:23:54;;;;;;;3.03;2.73;;;10.90;99.90;;;;;;5051163;28;20169;-74
2022/06/10 03:26:25;;;;;;;2.60;2.40;;;10.70;99.90;;;;;;5051202;28;20256;-74
2022/06/10 03:29:05;;;;;;;3.00;2.70;;;10.70;99.90;;;;;;5051121;28;20193;-74
2022/06/10 03:32:00;;;;;;;2.60;2.40;;;10.70;99.90;;;;;;5052322;28;20189;-73
2022/06/10 03:34:37;;;;;;;2.60;2.40;;;10.50;99.90;;;;;;5051059;28;20222;-74
2022/06/10 03:37:05;;;;;;;2.10;1.90;;;10.40;99.90;;;;;;5052417;28;20162;-75
2022/06/10 03:39:31;;;;;;;2.80;2.20;;;10.20;99.90;;;;;;5051006;28;20194;-74
2022/06/10 03:42:15;;;;;;;1.90;1.70;;;10.10;99.90;;;;;;5052008;28;20215;-74
2022/06/10 03:44:41;;;;;;;2.00;1.80;;;10.00;99.90;;;;;;5050860;28;20186;-74
2022/06/10 03:47:10;;;;;;;2.43;1.63;;;9.90;99.90;;;;;;5034405;28;20705;-74
2022/06/10 03:49:44;;;;;;;2.03;1.87;;;10.00;99.90;;;;;;5034479;28;20567;-73
2022/06/10 03:52:18;;;;;;;1.83;1.70;;;10.00;99.90;;;;;;5050586;28;20212;-74
2022/06/10 03:54:43;;;;;;;2.00;1.80;;;10.20;99.90;;;;;;5050892;28;20173;-74
2022/06/10 03:57:09;;;;;;;2.30;1.30;;;10.40;99.90;;;;;;5018034;28;20181;-74
2022/06/10 03:59:35;;;;;;;2.30;1.23;;;10.50;99.90;;;;;;5034190;28;20555;-74
2022/06/10 04:02:00;;;;;;;1.40;1.30;;;10.40;99.90;;;;;;5036833;28;20275;-74
2022/06/10 04:04:26;;;;;;;6.17;2.00;;;10.40;99.90;;;;;;5022005;28;20227;-73
2022/06/10 04:06:51;;;;;;;2.77;1.77;;;10.10;99.90;;;;;;5038247;28;20578;-74
2022/06/10 04:09:17;;;;;;;2.00;1.80;;;10.00;99.90;;;;;;5038093;28;20223;-74
2022/06/10 04:11:42;;;;;;;1.87;1.47;;;10.10;99.90;;;;;;5037923;28;20207;-73
2022/06/10 04:14:08;;;;;;;1.63;1.40;;;10.30;99.90;;;;;;5021800;28;20209;-73
2022/06/10 04:16:34;;;;;;;1.80;1.70;;;10.20;99.90;;;;;;5038097;28;20182;-74
2022/06/10 04:19:00;;;;;;;2.20;1.90;;;10.10;99.90;;;;;;5037924;28;20272;-74
2022/06/10 04:21:25;;;;;;;2.50;2.30;;;10.00;99.90;;;;;;5037870;28;20270;-74
2022/06/10 04:23:51;;;;;;;2.40;2.20;;;9.90;99.90;;;;;;5037779;28;20181;-74
2022/06/10 04:26:16;;;;;;;2.47;2.27;;;9.90;99.90;;;;;;5037783;28;20185;-73
2022/06/10 04:28:42;;;;;;;2.40;2.20;;;10.00;99.90;;;;;;5021769;28;20540;-74
2022/06/10 04:31:07;;;;;;;2.33;2.13;;;10.20;99.90;;;;;;5021453;28;20215;-74
2022/06/10 04:33:35;;;;;;;2.93;2.20;;;10.30;99.90;;;;;;5021152;28;20273;-74
2022/06/10 04:36:01;;;;;;;2.37;2.17;;;10.40;99.90;;;;;;5037910;28;20173;-73
2022/06/10 04:38:26;;;;;;;2.20;2.00;;;10.40;99.90;;;;;;5054123;28;20575;-74
2022/06/10 04:40:52;;;;;;;2.50;2.30;;;10.30;99.90;;;;;;5037629;28;20671;-74
2022/06/10 04:43:18;;;;;;;2.90;2.27;;;10.10;99.90;;;;;;5037290;28;20280;-74
2022/06/10 04:45:51;;;;;;;3.10;2.80;;;10.20;99.90;;;;;;5054396;28;20519;-74
2022/06/10 04:48:17;;;;;;;3.33;2.40;;;10.20;99.90;;;;;;5037202;28;20202;-74
2022/06/10 04:50:45;;;;;;;3.00;2.70;;;10.20;99.90;;;;;;5037351;28;20214;-74
2022/06/10 04:53:11;;;;;;;2.60;2.40;;;10.20;99.90;;;;;;5053709;28;20272;-74
2022/06/10 04:55:36;;;;;;;3.97;2.87;;;10.30;99.90;;;;;;5037595;28;20223;-74
2022/06/10 04:58:02;;;;;;;4.00;3.00;;;10.40;99.90;;;;;;5053862;28;20202;-74
2022/06/10 05:00:32;;;;;;;4.17;3.33;;;10.50;99.90;;;;;;5020886;28;20182;-75
2022/06/10 05:02:59;;;;;;;3.60;3.30;;;10.60;99.90;;;;;;5053877;28;20202;-74
2022/06/10 05:05:26;;;;;;;4.00;3.50;;;10.70;99.90;;;;;;5054125;28;20284;-78
2022/06/10 05:07:51;;;;;;;3.97;3.57;;;10.70;99.90;;;;;;5037200;28;20243;-73
2022/06/10 05:10:18;;;;;;;4.50;3.43;;;10.70;99.90;;;;;;5020790;28;20205;-73
2022/06/10 05:12:47;;;;;;;34.67;16.70;;;10.80;99.90;;;;;;5052324;28;20178;-74
2022/06/10 05:15:20;;;;;;;28.40;25.67;;;10.80;99.90;;;;;;5037355;28;20216;-74
2022/06/10 05:17:47;;;;;;;6.23;4.47;;;10.90;99.90;;;;;;5053425;28;20208;-74
2022/06/10 05:20:18;;;;;;;3.60;2.33;;;11.00;99.90;;;;;;5036747;28;20182;-74
2022/06/10 05:22:44;;;;;;;5.20;3.87;;;11.10;99.90;;;;;;5053278;28;20201;-73
2022/06/10 05:25:10;;;;;;;7.53;3.00;;;11.10;99.90;;;;;;5036736;28;20215;-73
2022/06/10 05:27:35;;;;;;;6.10;3.50;;;11.30;99.90;;;;;;5053655;28;20186;-74
2022/06/10 05:30:02;;;;;;;4.27;3.30;;;11.40;99.90;;;;;;5020436;28;20204;-75
2022/06/10 05:32:28;;;;;;;5.60;3.67;;;11.40;99.90;;;;;;5054376;28;20168;-75
2022/06/10 05:34:53;;;;;;;4.10;3.37;;;11.40;99.90;;;;;;5020360;28;20311;-76
2022/06/10 05:37:22;;;;;;;4.80;3.80;;;11.50;99.90;;;;;;5053580;28;20699;-77
2022/06/10 05:39:49;;;;;;;4.07;3.60;;;11.50;99.90;;;;;;5053306;28;20197;-76
2022/06/10 05:42:15;;;;;;;5.73;3.73;;;11.60;99.90;;;;;;5053220;28;20231;-75
2022/06/10 05:44:43;;;;;;;6.03;3.70;;;11.70;99.90;;;;;;5036699;28;20177;-76
2022/06/10 05:47:15;;;;;;;5.60;4.10;;;11.70;99.90;;;;;;5036513;28;20180;-76
2022/06/10 05:49:44;;;;;;;5.47;4.03;;;11.90;99.90;;;;;;5036438;28;20197;-76
2022/06/10 05:52:11;;;;;;;4.87;4.17;;;12.00;99.90;;;;;;5052886;28;20290;-76
2022/06/10 05:54:40;;;;;;;10.73;9.17;;;12.00;99.90;;;;;;5036596;28;20189;-75
2022/06/10 05:57:06;;;;;;;8.03;7.10;;;12.00;99.90;;;;;;5052871;28;20178;-75
2022/06/10 05:59:33;;;;;;;8.33;6.70;;;12.10;99.90;;;;;;5053153;28;20194;-83
2022/06/10 06:02:00;;;;;;;6.70;5.40;;;12.20;99.90;;;;;;5052922;28;20567;-74
2022/06/10 06:04:25;;;;;;;5.27;4.10;;;12.20;99.90;;;;;;5019707;28;20189;-74
2022/06/10 06:06:51;;;;;;;4.33;3.20;;;12.40;99.90;;;;;;5036140;28;20187;-74
2022/06/10 06:09:18;;;;;;;5.20;3.77;;;12.50;99.90;;;;;;5035949;28;20255;-74
2022/06/10 06:11:46;;;;;;;6.17;4.33;;;12.50;99.90;;;;;;5052374;28;20205;-74
2022/06/10 06:14:11;;;;;;;9.20;6.73;;;12.60;99.90;;;;;;5036124;28;20185;-74
2022/06/10 06:16:37;;;;;;;6.00;4.87;;;12.70;99.90;;;;;;5052511;28;20170;-74
2022/06/10 06:19:03;;;;;;;0.00;0.00;;;12.80;99.90;;;;;;5035882;28;20205;-74
2022/06/10 06:21:31;;;;;;;0.00;0.00;;;12.90;99.90;;;;;;5035992;28;20197;-74
2022/06/10 06:23:56;;;;;;;7.67;5.40;;;13.00;99.90;;;;;;5035400;28;20193;-74
2022/06/10 06:26:22;;;;;;;6.33;5.73;;;13.20;99.90;;;;;;5035775;28;20186;-74
2022/06/10 06:28:47;;;;;;;1389.47;681.33;;;13.30;99.90;;;;;;5035510;28;20625;-74
2022/06/10 06:31:13;;;;;;;7.87;6.43;;;13.40;99.90;;;;;;5035610;28;20300;-74
2022/06/10 06:33:38;;;;;;;7.43;6.57;;;13.50;99.90;;;;;;5035425;28;20213;-74
2022/06/10 06:36:06;;;;;;;4.83;3.37;;;13.60;99.90;;;;;;5019116;28;20211;-74
2022/06/10 06:38:32;;;;;;;5.67;4.40;;;13.80;99.90;;;;;;5019265;28;20348;-74
2022/06/10 06:40:58;;;;;;;7.03;6.30;;;13.80;99.90;;;;;;5053176;28;20260;-74
2022/06/10 06:43:24;;;;;;;7.97;7.13;;;13.90;99.90;;;;;;5035121;28;20181;-74
2022/06/10 06:45:49;;;;;;;7.47;6.63;;;14.00;99.90;;;;;;5019022;28;20181;-73
2022/06/10 06:48:15;;;;;;;7.50;6.70;;;14.10;99.90;;;;;;5035457;28;20208;-74
2022/06/10 06:50:45;;;;;;;8.97;6.60;;;14.20;99.90;;;;;;5052006;28;20205;-74
2022/06/10 06:53:10;;;;;;;8.40;6.07;;;14.30;99.90;;;;;;5052870;28;20539;-74
2022/06/10 06:55:38;;;;;;;7.90;6.60;;;14.40;99.90;;;;;;5035283;28;20670;-74
2022/06/10 06:58:05;;;;;;;214.43;21.73;;;14.40;99.90;;;;;;5051800;28;20288;-73
2022/06/10 07:00:31;;;;;;;7.77;6.93;;;14.50;99.90;;;;;;5051995;28;20173;-74
2022/06/10 07:02:56;;;;;;;64.23;59.70;;;14.70;99.90;;;;;;5035240;28;20192;-74
2022/06/10 07:05:22;;;;;;;10.30;6.63;;;14.80;99.90;;;;;;5018876;28;20619;-74
2022/06/10 07:07:48;;;;;;;8.50;7.13;;;14.90;99.90;;;;;;5035177;28;20269;-73
2022/06/10 07:10:15;;;;;;;9.40;7.00;;;14.90;99.90;;;;;;5018771;28;20532;-74
2022/06/10 07:12:41;;;;;;;7.13;6.43;;;15.00;99.90;;;;;;5034827;28;20181;-74
2022/06/10 07:15:07;;;;;;;8.93;6.97;;;15.10;99.90;;;;;;5051915;28;20170;-75
2022/06/10 07:17:33;;;;;;;10.03;6.67;;;15.30;99.90;;;;;;5031807;28;20182;-75
2022/06/10 07:19:59;;;;;;;8.57;6.80;;;15.40;99.90;;;;;;5050647;22;20218;-78
2022/06/10 07:22:26;;;;;;;8.07;6.90;;;15.50;99.90;;;;;;5014525;28;20178;-78
2022/06/10 07:24:53;;;;;;;280.53;22.33;;;15.60;99.90;;;;;;5031160;28;20675;-77
2022/06/10 07:27:19;;;;;;;7.87;6.30;;;15.70;99.90;;;;;;4998396;28;20237;-78
2022/06/10 07:29:45;;;;;;;6.97;6.30;;;15.80;99.90;;;;;;4999136;28;20284;-81
2022/06/10 07:32:10;;;;;;;7.77;6.13;;;15.90;99.90;;;;;;5031989;28;20214;-79
2022/06/10 07:34:36;;;;;;;8.30;5.87;;;16.00;99.90;;;;;;5014939;28;20601;-79
2022/06/10 07:37:01;;;;;;;8.60;6.20;;;16.10;99.90;;;;;;4997964;28;20179;-80
2022/06/10 07:39:27;;;;;;;9.00;6.30;;;16.30;99.90;;;;;;5031248;28;20260;-79
2022/06/10 07:42:00;;;;;;;8.47;6.00;;;16.30;99.90;;;;;;5030802;28;20174;-79
2022/06/10 07:44:37;;;;;;;6.80;5.60;;;16.50;99.90;;;;;;5015861;28;20232;-79
2022/06/10 07:47:07;;;;;;;9.47;6.17;;;16.60;99.90;;;;;;5014769;28;20205;-79
2022/06/10 07:49:32;;;;;;;5.83;5.33;;;16.80;99.90;;;;;;5014840;28;20683;-79
2022/06/10 07:51:58;;;;;;;9.07;5.67;;;16.90;99.90;;;;;;5014287;28;20260;-79
2022/06/10 07:54:24;;;;;;;7.33;5.27;;;17.00;99.90;;;;;;5030899;28;20175;-79
2022/06/10 07:56:50;;;;;;;6.13;5.00;;;17.10;99.90;;;;;;5014564;28;20178;-79
2022/06/10 07:59:16;;;;;;;6.27;4.73;;;17.20;99.90;;;;;;4998349;28;20244;-79
2022/06/10 08:01:42;;;;;;;5.67;4.20;;;17.30;99.90;;;;;;5014337;28;20186;-79
2022/06/10 08:04:08;;;;;;;5.43;4.27;;;17.30;99.90;;;;;;5014260;28;20175;-80
2022/06/10 08:06:39;;;;;;;4.53;3.73;;;17.40;99.90;;;;;;5030945;28;20598;-79
2022/06/10 08:09:05;;;;;;;4.70;3.60;;;17.60;99.90;;;;;;5030702;28;20197;-80
2022/06/10 08:11:31;;;;;;;6.60;3.90;;;17.70;99.90;;;;;;5014070;28;20213;-79
2022/06/10 08:13:56;;;;;;;4.37;2.83;;;17.80;99.90;;;;;;5014369;28;20175;-79
2022/06/10 08:16:23;;;;;;;5.07;2.90;;;17.90;99.90;;;;;;5014411;28;20175;-79
2022/06/10 08:18:49;;;;;;;2.80;2.50;;;18.10;99.90;;;;;;5030645;28;20642;-79
2022/06/10 08:24:01;;;;;;;4.07;2.53;;;18.30;99.90;;;;;;5031052;28;20243;-80
2022/06/10 08:26:27;;;;;;;8.03;4.70;;;18.30;99.90;;;;;;5014323;28;20593;-79
2022/06/10 08:28:54;;;;;;;3.67;2.20;;;18.50;99.90;;;;;;5030486;28;20681;-79
2022/06/10 08:31:21;;;;;;;2.47;2.00;;;18.50;99.90;;;;;;5030458;28;20586;-79
2022/06/10 08:33:46;;;;;;;4.07;2.23;;;18.60;99.90;;;;;;5030391;28;20184;-79
2022/06/10 08:36:13;;;;;;;567.47;37.17;;;18.70;99.90;;;;;;5014326;28;20182;-79
2022/06/10 08:38:42;;;;;;;3.10;2.20;;;18.90;99.90;;;;;;5030732;28;20186;-79
2022/06/10 08:41:35;;;;;;;3.67;2.20;;;19.00;99.90;;;;;;5030556;28;20179;-79
2022/06/10 08:44:00;;;;;;;2.67;2.33;;;19.00;99.90;;;;;;5030243;28;20680;-79
2022/06/10 08:47:03;;;;;;;3.83;1.90;;;19.10;99.90;;;;;;5030378;28;20201;-79
2022/06/10 08:49:58;;;;;;;2.00;1.70;;;19.20;99.90;;;;;;5034250;28;20196;-79
2022/06/10 08:52:41;;;;;;;3.10;1.70;;;19.40;99.90;;;;;;5033675;28;20256;-79
2022/06/10 08:55:29;;;;;;;2.90;1.87;;;19.50;99.90;;;;;;5035623;28;20521;-78
2022/06/10 08:57:57;;;;;;;1.70;1.60;;;19.60;99.90;;;;;;5035222;28;20177;-78
2022/06/10 09:00:33;;;;;;;3.27;1.63;;;19.70;99.90;;;;;;5033653;28;20206;-78
2022/06/10 09:03:12;;;;;;;3.30;1.50;;;19.70;99.90;;;;;;5017437;28;20197;-79
2022/06/10 09:05:46;;;;;;;2.20;1.50;;;19.80;99.90;;;;;;5033900;28;20170;-78
2022/06/10 09:08:26;;;;;;;3.20;1.35;;;19.90;99.90;;;;;;5033927;28;20170;-78
2022/06/10 09:10:56;;;;;;;1.90;1.57;;;20.00;99.90;;;;;;5018070;28;20278;-78
2022/06/10 09:13:34;;;;;;;3.10;1.60;;;20.10;99.90;;;;;;5017146;28;20181;-78
2022/06/10 09:16:27;;;;;;;1.60;1.38;;;20.30;99.90;;;;;;5033944;28;20172;-78
2022/06/10 09:19:26;;;;;;;2.60;1.50;;;20.40;99.90;;;;;;5013661;28;20578;-79
2022/06/10 09:22:22;;;;;;;1.70;1.23;;;20.40;99.90;;;;;;5014810;28;20552;-78
2022/06/10 09:25:13;;;;;;;2.50;1.30;;;20.60;99.90;;;;;;5014804;28;20167;-77
2022/06/10 09:27:47;;;;;;;2.42;1.30;;;20.70;99.90;;;;;;5025193;28;20274;-78
2022/06/10 09:30:16;;;;;;;1.42;1.13;;;20.80;99.90;;;;;;5013479;28;20229;-80
2022/06/10 09:33:10;;;;;;;1.60;1.00;;;21.00;99.90;;;;;;5013390;28;20182;-77
2022/06/10 09:35:57;;;;;;;2.35;1.27;;;21.00;99.90;;;;;;5013540;28;20225;-76
2022/06/10 09:38:41;;;;;;;2.30;1.17;;;21.20;99.90;;;;;;5013397;28;20293;-77
2022/06/10 09:41:26;;;;;;;1.40;1.13;;;21.20;99.90;;;;;;5013673;28;20182;-76
2022/06/10 09:44:10;;;;;;;2.45;1.40;;;21.30;99.90;;;;;;5013134;28;20225;-76
2022/06/10 09:47:00;;;;;;;2.03;1.40;;;21.40;99.90;;;;;;5014475;28;20171;-76
2022/06/10 09:49:43;;;;;;;1.90;1.48;;;21.60;99.90;;;;;;5013150;28;20673;-76
2022/06/10 09:52:39;;;;;;;2.08;1.60;;;21.60;99.90;;;;;;5013036;28;20225;-76
2022/06/10 09:55:44;;;;;;;1.52;1.10;;;21.70;99.90;;;;;;5007780;28;20214;-76
2022/06/10 09:58:19;;;;;;;36.50;3.38;;;21.80;99.90;;;;;;5012878;28;20177;-75
2022/06/10 10:00:53;;;;;;;2.50;1.48;;;21.90;99.90;;;;;;5012886;28;20266;-76
2022/06/10 10:03:51;;;;;;;1.85;1.33;;;21.80;99.90;;;;;;5013815;28;20221;-76
2022/06/10 10:06:33;;;;;;;6.10;1.50;;;21.90;99.90;;;;;;5012950;28;20179;-76
2022/06/10 10:09:02;;;;;;;2.17;1.50;;;21.60;99.90;;;;;;5012874;28;20210;-76
2022/06/10 10:11:49;;;;;;;3.55;1.55;;;21.60;99.90;;;;;;5013947;28;20202;-76
2022/06/10 10:14:30;;;;;;;4.93;1.65;;;21.90;99.90;;;;;;5013893;28;20167;-76
2022/06/10 10:17:18;;;;;;;356.63;199.20;;;22.30;99.90;;;;;;5014028;28;20256;-76
2022/06/10 10:20:03;;;;;;;4.78;1.58;;;22.40;99.90;;;;;;5012675;28;20293;-76
2022/06/10 10:22:44;;;;;;;2.20;1.52;;;22.10;99.90;;;;;;5012331;28;20186;-76
2022/06/10 10:25:20;;;;;;;2.45;1.48;;;22.00;99.90;;;;;;5012593;28;20181;-76
2022/06/10 10:27:47;;;;;;;3.17;1.60;;;22.10;99.90;;;;;;5012591;28;20305;-76
2022/06/10 10:30:35;;;;;;;2.72;1.60;;;22.40;99.90;;;;;;5012606;28;20206;-76
2022/06/10 10:33:09;;;;;;;3.53;1.50;;;22.20;99.90;;;;;;5013362;28;20232;-76
2022/06/10 10:35:48;;;;;;;4.15;1.70;;;21.70;99.90;;;;;;5012942;28;20206;-76
2022/06/10 10:38:29;;;;;;;2.17;1.60;;;21.80;99.90;;;;;;5012696;28;20205;-76
2022/06/10 10:40:55;;;;;;;2.78;1.50;;;21.70;99.90;;;;;;4996254;28;20183;-76
2022/06/10 10:43:29;;;;;;;3.53;1.70;;;21.50;99.90;;;;;;4996315;28;20286;-78
2022/06/10 10:45:59;;;;;;;3.20;1.52;;;21.20;99.90;;;;;;4996370;28;20622;-77
2022/06/10 10:48:31;;;;;;;3.20;1.58;;;21.00;99.90;;;;;;4996877;28;20598;-78
2022/06/10 10:51:13;;;;;;;2.28;1.40;;;21.00;99.90;;;;;;4997096;28;20198;-78
2022/06/10 10:53:48;;;;;;;2.63;1.45;;;21.10;99.90;;;;;;5012735;28;20159;-78
2022/06/10 10:56:16;;;;;;;2.75;1.50;;;21.50;99.90;;;;;;5012693;28;20174;-78
2022/06/10 10:58:52;;;;;;;3.10;1.52;;;22.00;99.90;;;;;;5012605;28;20548;-78
2022/06/10 11:01:46;;;;;;;2.20;1.60;;;22.30;99.90;;;;;;5012832;28;20261;-77
2022/06/10 11:04:16;;;;;;;2.92;1.70;;;22.80;99.90;;;;;;5012412;28;20210;-77
2022/06/10 11:06:42;;;;;;;3.03;1.63;;;22.90;99.90;;;;;;5012578;28;20179;-76
2022/06/10 11:09:21;;;;;;;22.45;4.00;;;23.00;99.60;;;;;;5012205;28;20680;-77
2022/06/10 11:11:49;;;;;;;3.22;1.50;;;23.00;97.60;;;;;;5011449;28;20191;-76
2022/06/10 11:14:23;;;;;;;2.75;1.42;;;22.70;99.00;;;;;;5012071;28;20241;-76
2022/06/10 11:17:11;;;;;;;1.67;1.30;;;22.30;99.90;;;;;;5012112;28;20205;-76
2022/06/10 11:19:37;;;;;;;3.35;1.50;;;22.00;99.90;;;;;;5011849;28;20294;-76
2022/06/10 11:22:15;;;;;;;3.80;1.65;;;22.20;99.90;;;;;;5013438;28;20258;-76
2022/06/10 11:24:46;;;;;;;1.73;1.40;;;22.90;99.90;;;;;;5011929;28;20640;-76
2022/06/10 11:27:27;;;;;;;2.60;1.60;;;23.50;97.90;;;;;;5012093;28;20182;-76
2022/06/10 11:30:18;;;;;;;2.60;1.30;;;23.80;98.90;;;;;;4995725;28;20212;-76
2022/06/10 11:32:51;;;;;;;2.83;1.60;;;24.10;96.40;;;;;;5006808;28;20665;-76
2022/06/10 11:35:28;;;;;;;2.95;1.42;;;23.50;93.90;;;;;;5012038;28;20583;-76
2022/06/10 11:38:15;;;;;;;2.58;1.30;;;23.50;95.30;;;;;;5011760;28;20618;-76
2022/06/10 11:40:52;;;;;;;2.67;1.40;;;23.50;94.40;;;;;;4996991;28;20175;-77
2022/06/10 11:43:25;;;;;;;1.73;1.38;;;23.20;93.50;;;;;;4995524;28;20170;-76
2022/06/10 11:45:53;;;;;;;2.28;1.35;;;23.00;94.70;;;;;;5012952;28;20657;-76
2022/06/10 11:48:41;;;;;;;2.00;1.52;;;22.70;97.10;;;;;;5013244;28;20195;-76
2022/06/10 11:51:38;;;;;;;3.10;1.35;;;22.60;97.30;;;;;;5011896;28;20194;-76
2022/06/10 11:54:26;;;;;;;2.85;1.50;;;22.40;98.30;;;;;;5003325;28;20213;-76
2022/06/10 12:00:14;;;;;;;1.33;1.17;;;23.20;96.20;;;;;;5012849;28;20291;-76
2022/06/10 12:03:15;;;;;;;2.83;1.20;;;23.70;95.80;;;;;;5011702;28;20164;-77
2022/06/10 12:06:12;;;;;;;2.42;1.10;;;24.20;92.30;;;;;;5011936;28;20159;-77
2022/06/10 12:08:56;;;;;;;3.35;1.45;;;24.20;92.40;;;;;;5011455;28;20218;-76
2022/06/10 12:11:33;;;;;;;3.50;1.27;;;23.50;93.50;;;;;;5011343;28;20197;-76
2022/06/10 12:14:23;;;;;;;2.47;1.50;;;23.60;95.00;;;;;;4995288;28;20621;-76
2022/06/10 12:16:54;;;;;;;1.48;1.38;;;24.10;93.20;;;;;;5011663;28;20250;-77
2022/06/10 12:19:27;;;;;;;2.17;1.30;;;24.20;90.10;;;;;;4995401;28;20217;-76
2022/06/10 12:21:53;;;;;;;1.90;1.10;;;24.30;83.10;;;;;;4995792;28;20182;-76
2022/06/10 12:24:20;;;;;;;3.55;1.08;;;23.90;82.60;;;;;;4999014;28;20183;-76
2022/06/10 12:26:55;;;;;;;2.78;1.23;;;23.60;88.10;;;;;;5015184;28;20175;-76
2022/06/10 12:29:37;;;;;;;3.35;1.48;;;23.20;91.40;;;;;;5014808;28;20202;-76
2022/06/10 12:32:10;;;;;;;2.58;1.20;;;23.30;92.00;;;;;;5014729;28;20642;-76
2022/06/10 12:34:49;;;;;;;2.30;1.33;;;23.80;93.00;;;;;;5016403;28;20147;-76
2022/06/10 12:37:40;;;;;;;2.80;1.20;;;24.10;88.80;;;;;;5014547;28;20209;-77
2022/06/10 12:40:30;;;;;;;1.85;1.17;;;24.50;89.10;;;;;;5015683;28;20191;-77
2022/06/10 12:43:06;;;;;;;2.10;1.23;;;25.10;86.90;;;;;;5014230;28;20206;-76
2022/06/10 12:45:41;;;;;;;2.40;1.63;;;25.20;86.30;;;;;;5014464;28;20170;-76
2022/06/10 12:48:27;;;;;;;2.20;1.60;;;25.30;82.80;;;;;;5014165;28;20178;-76
2022/06/10 12:50:59;;;;;;;2.28;1.30;;;24.90;83.50;;;;;;5015350;28;20199;-76
2022/06/10 12:53:57;;;;;;;2.38;1.60;;;24.40;87.40;;;;;;5014276;28;20175;-76
2022/06/10 12:56:34;;;;;;;3.05;1.45;;;24.30;89.40;;;;;;5015306;28;20666;-76
2022/06/10 12:59:12;;;;;;;3.55;1.40;;;24.70;84.80;;;;;;5015295;28;20218;-77
2022/06/10 13:01:37;;;;;;;2.65;1.40;;;24.70;89.00;;;;;;5015351;28;20661;-77
2022/06/10 13:04:12;;;;;;;2.08;1.52;;;24.30;88.60;;;;;;5013911;28;20213;-76
2022/06/10 13:06:43;;;;;;;4.00;1.58;;;24.50;90.10;;;;;;5014122;28;20181;-76
2022/06/10 13:09:12;;;;;;;4.25;1.40;;;24.90;85.50;;;;;;5014014;28;20199;-77
2022/06/10 13:11:55;;;;;;;2.08;1.20;;;25.10;82.10;;;;;;5013826;28;20207;-77
2022/06/10 13:14:30;;;;;;;1.77;1.33;;;25.30;78.40;;;;;;5013928;28;20186;-77
2022/06/10 13:16:59;;;;;;;3.17;1.40;;;25.00;81.70;;;;;;5013865;28;20550;-77
2022/06/10 13:19:30;;;;;;;2.83;1.25;;;24.60;80.00;;;;;;5033703;23;20223;-75
2022/06/10 13:21:57;;;;;;;2.55;1.25;;;24.70;81.10;;;;;;4995272;28;20172;-75
2022/06/10 13:24:23;;;;;;;2.88;1.42;;;24.60;80.60;;;;;;4978047;28;20183;-76
2022/06/10 13:26:50;;;;;;;2.53;1.40;;;24.90;82.20;;;;;;4994671;28;20203;-76
2022/06/10 13:29:19;;;;;;;2.92;1.73;;;25.40;78.60;;;;;;4994527;28;20238;-76